Latest Coastal Weather Observations for Darwin Harbour

IDD60701

Issued at 10:31 pm CST Monday 6 July 2020 (issued every 10 minutes, with the page automatically refreshed every 10 minutes)

About coastal observations | Map of coastal stations | Coastal observations for NT | Marine services | Other Formats
Station Details ID: 014072 Name: DARWIN NTC AWS Lat: -12.47 Lon: 130.85 Height: 0.0 m
Data from the previous 72 hours. | See also: Recent months for locations in Northern Territory
Date/Time
CST
Wind Sea
Height
m
Swell Vis
km
Cloud Weather Temp
°C
Press
hPa
Rain since
9am
mm
Dir  Spd
kts
Gust
kts
Height
m
Period
s
Dir
06/10:30pm SSE 4 6 - - - - - - - 25.8 1014.5 -
06/10:00pm ENE 2 3 - - - - - - - 25.8 1014.5 -
06/09:30pm ENE 2 5 - - - - - - - 26.4 1014.3 -
06/09:00pm NE 2 5 - - - - - - - 26.9 1014.1 -
06/08:30pm NNE 4 7 - - - - - - - 27.0 1013.8 -
06/08:00pm NNW 2 5 - - - - - - - 26.8 1013.5 -
06/07:30pm NNE 3 6 - - - - - - - 26.8 1013.3 -
06/07:00pm N 1 4 - - - - - - - 27.1 1012.9 -
06/06:30pm WNW 2 4 - - - - - - - 27.1 1012.5 -
06/06:00pm NNE 6 12 - - - - - - - 27.1 1012.3 -
06/05:30pm N 5 9 - - - - - - - 27.6 1012.0 -
06/05:00pm NNW 5 8 - - - - - - - 28.4 1011.7 -
06/04:30pm E 3 6 - - - - - - - 30.0 1011.6 -
06/04:00pm SSE 5 8 - - - - - - - 29.6 1011.5 -
06/03:30pm ESE 8 10 - - - - - - - 28.9 1011.5 -
06/03:00pm ESE 9 11 - - - - - - - 29.1 1011.7 -
06/02:30pm ESE 10 12 - - - - - - - 28.7 1011.9 -
06/02:00pm ESE 10 13 - - - - - - - 28.6 1012.1 -
06/01:30pm ESE 12 14 - - - - - - - 27.7 1012.5 -
06/01:00pm ESE 13 15 - - - - - - - 27.4 1012.9 -
06/12:30pm ESE 12 16 - - - - - - - 27.0 1013.5 -
06/12:00pm ESE 15 18 - - - - - - - 26.6 1013.9 -
06/11:30am ESE 14 17 - - - - - - - 25.9 1014.5 -
06/11:00am ESE 16 20 - - - - - - - 25.3 1014.7 -
06/10:30am ESE 15 21 - - - - - - - 24.5 1015.1 -
06/10:00am ESE 17 21 - - - - - - - 23.7 1015.3 -
06/09:30am ESE 21 27 - - - - - - - 23.2 1015.3 -
06/09:00am SE 22 27 - - - - - - - 23.1 1015.4 -
06/08:30am SE 19 23 - - - - - - - 22.4 1015.2 -
06/08:00am SE 16 22 - - - - - - - 21.9 1015.0 -
06/07:30am SE 15 20 - - - - - - - 21.8 1014.7 -
06/07:00am SE 14 19 - - - - - - - 21.9 1014.5 -
06/06:30am SE 12 15 - - - - - - - 21.9 1014.2 -
06/06:00am SE 14 18 - - - - - - - 22.1 1014.0 -
06/05:30am ESE 13 16 - - - - - - - 22.7 1014.2 -
06/05:00am E 14 17 - - - - - - - 22.6 1014.1 -
06/04:30am E 15 18 - - - - - - - 22.7 1014.1 -
06/04:00am ESE 16 22 - - - - - - - 23.2 1014.0 -
06/03:30am ESE 17 21 - - - - - - - 23.3 1014.4 -
06/03:00am ESE 16 19 - - - - - - - 23.4 1014.4 -
06/02:30am SE 15 20 - - - - - - - 23.5 1014.5 -
06/02:00am SE 13 16 - - - - - - - 23.4 1014.7 -
06/01:30am SE 13 17 - - - - - - - 23.2 1014.8 -
06/01:00am SE 13 16 - - - - - - - 23.3 1014.9 -
06/12:30am SE 12 15 - - - - - - - 23.6 1014.8 -
06/12:00am SE 12 15 - - - - - - - 23.8 1014.7 -
 
Date/Time
CST
Wind Sea
Height
m
Swell Vis
km
Cloud Weather Temp
°C
Press
hPa
Rain since
9am
mm
Dir  Spd
kts
Gust
kts
Height
m
Period
s
Dir
05/11:30pm SE 10 13 - - - - - - - 24.2 1014.5 -
05/11:00pm SSE 10 14 - - - - - - - 25.1 1014.6 -
05/10:30pm SSE 9 14 - - - - - - - 25.5 1014.4 -
05/10:00pm SSE 12 16 - - - - - - - 25.7 1014.2 -
05/09:30pm SSE 11 16 - - - - - - - 26.3 1013.9 -
05/09:00pm SSE 11 15 - - - - - - - 26.8 1013.8 -
05/08:30pm SSE 9 11 - - - - - - - 26.5 1013.5 -
05/08:00pm SE 8 11 - - - - - - - 26.7 1013.2 -
05/07:30pm ESE 7 9 - - - - - - - 27.2 1012.8 -
05/07:00pm ESE 6 7 - - - - - - - 27.2 1012.6 -
05/06:30pm SE 7 10 - - - - - - - 27.9 1012.3 -
05/06:00pm E 10 13 - - - - - - - 28.2 1011.8 -
05/05:30pm ESE 9 12 - - - - - - - 28.3 1011.5 -
05/05:00pm E 9 13 - - - - - - - 28.4 1011.2 -
05/04:30pm SE 9 11 - - - - - - - 28.2 1011.2 -
05/04:00pm ESE 9 12 - - - - - - - 28.1 1011.2 -
05/03:30pm ESE 9 13 - - - - - - - 27.8 1011.3 -
05/03:00pm ESE 12 16 - - - - - - - 27.4 1011.5 -
05/02:30pm ESE 11 14 - - - - - - - 27.3 1011.9 -
05/02:00pm ESE 13 17 - - - - - - - 26.9 1012.4 -
05/01:30pm ESE 16 21 - - - - - - - 26.7 1012.7 -
05/01:00pm ESE 15 19 - - - - - - - 26.4 1013.2 -
05/12:30pm SE 15 19 - - - - - - - 26.1 1013.7 -
05/12:00pm SE 14 19 - - - - - - - 25.4 1014.2 -
05/11:30am SE 15 21 - - - - - - - 25.1 1014.8 -
05/11:00am ESE 14 22 - - - - - - - 24.8 1015.2 -
05/10:30am ESE 17 24 - - - - - - - 24.3 1015.6 -
05/10:00am SE 8 15 - - - - - - - 23.9 1015.7 -
05/09:30am SE 12 20 - - - - - - - 23.2 1015.8 -
05/09:00am SE 6 15 - - - - - - - 23.0 1015.6 -
05/08:30am SE 14 17 - - - - - - - 22.6 1015.4 -
05/08:00am ESE 10 15 - - - - - - - 22.3 1015.1 -
05/07:30am ESE 10 15 - - - - - - - 22.8 1014.9 -
05/07:00am E 8 15 - - - - - - - 23.1 1014.5 -
05/06:30am ENE 7 15 - - - - - - - 23.5 1014.1 -
05/06:00am E 9 17 - - - - - - - 23.7 1013.9 -
05/05:30am ENE 9 17 - - - - - - - 23.7 1013.6 -
05/05:00am ENE 10 19 - - - - - - - 23.8 1013.6 -
05/04:30am ENE 17 24 - - - - - - - 24.0 1012.9 -
05/04:00am ENE 18 25 - - - - - - - 24.4 1013.2 -
05/03:30am ENE 16 23 - - - - - - - 24.7 1013.3 -
05/03:00am ENE 15 20 - - - - - - - 24.4 1013.7 -
05/02:30am ENE 11 17 - - - - - - - 24.6 1014.1 -
05/02:00am ENE 12 19 - - - - - - - 25.0 1014.2 -
05/01:30am E 10 18 - - - - - - - 25.3 1014.3 -
05/01:00am E 11 19 - - - - - - - 25.7 1014.4 -
05/12:30am E 10 20 - - - - - - - 25.9 1014.4 -
05/12:00am ESE 13 18 - - - - - - - 26.3 1014.6 -
 
Date/Time
CST
Wind Sea
Height
m
Swell Vis
km
Cloud Weather Temp
°C
Press
hPa
Rain since
9am
mm
Dir  Spd
kts
Gust
kts
Height
m
Period
s
Dir
04/11:30pm ESE 12 15 - - - - - - - 26.4 1014.6 -
04/11:00pm SE 11 13 - - - - - - - 26.0 1014.8 -
04/10:30pm ESE 9 14 - - - - - - - 26.8 1014.7 -
04/10:00pm ESE 9 12 - - - - - - - 26.7 1014.7 -
04/09:30pm ESE 9 11 - - - - - - - 27.0 1014.5 -
04/09:00pm SE 8 11 - - - - - - - 27.4 1014.3 -
04/08:30pm SE 9 13 - - - - - - - 28.1 1013.9 -
04/08:00pm SE 8 12 - - - - - - - 28.4 1013.6 -
04/07:30pm SE 10 12 - - - - - - - 28.9 1013.1 -
04/07:00pm SE 11 15 - - - - - - - 29.3 1012.8 -
04/06:30pm SE 8 13 - - - - - - - 29.6 1012.4 -
04/06:00pm ESE 9 15 - - - - - - - 29.4 1012.1 -
04/05:30pm ESE 11 18 - - - - - - - 29.4 1011.9 -
04/05:00pm E 9 16 - - - - - - - 30.2 1011.8 -
04/04:30pm ESE 12 17 - - - - - - - 30.2 1011.8 -
04/04:00pm ESE 9 15 - - - - - - - 30.5 1011.8 -
04/03:30pm ESE 10 16 - - - - - - - 29.9 1012.2 -
04/03:00pm E 11 17 - - - - - - - 29.4 1012.4 -
04/02:30pm E 11 18 - - - - - - - 30.0 1012.6 -
04/02:00pm ESE 17 23 - - - - - - - 29.2 1012.9 -
04/01:30pm E 14 23 - - - - - - - 29.7 1013.6 -
04/01:00pm ESE 16 23 - - - - - - - 28.6 1014.1 -
04/12:30pm E 13 23 - - - - - - - 28.9 1014.6 -
04/12:06pm ESE 16 26 - - - - - - - 28.3 1014.9 -
04/12:00pm ESE 17 25 - - - - - - - 28.3 1015.1 -
04/11:30am ESE 16 25 - - - - - - - 27.9 1015.6 -
04/11:05am E 15 29 - - - - - - - 27.9 1015.7 -
04/11:00am E 14 24 - - - - - - - 27.9 1015.8 -
04/10:34am ESE 17 27 - - - - - - - 27.0 1015.9 -
04/10:30am ESE 19 24 - - - - - - - 26.8 1015.9 -
04/10:02am ESE 17 27 - - - - - - - 26.6 1016.0 -
04/10:00am ESE 18 27 - - - - - - - 26.6 1016.0 -
04/09:30am ESE 15 20 - - - - - - - 25.8 1016.1 -
04/09:00am ESE 12 16 - - - - - - - 25.4 1016.0 -
04/08:30am ESE 12 16 - - - - - - - 24.7 1015.7 -
04/08:00am ENE 7 12 - - - - - - - 24.9 1015.3 -
04/07:30am ENE 10 15 - - - - - - - 24.7 1014.9 -
04/07:00am ENE 7 13 - - - - - - - 24.8 1014.6 -
04/06:30am ENE 7 11 - - - - - - - 24.9 1014.6 -
04/06:00am ENE 8 12 - - - - - - - 24.7 1014.5 -
04/05:30am E 8 15 - - - - - - - 25.4 1014.4 -
04/05:00am ESE 11 15 - - - - - - - 25.7 1014.1 -
04/04:30am ESE 9 14 - - - - - - - 25.9 1014.1 -
04/04:00am E 5 9 - - - - - - - 26.5 1014.1 -
04/03:30am E 4 7 - - - - - - - 26.5 1014.3 -
04/03:00am SE 6 8 - - - - - - - 25.6 1014.4 -
04/02:30am SE 5 8 - - - - - - - 25.2 1014.7 -
04/02:00am SE 5 6 - - - - - - - 25.1 1015.1 -
04/01:30am SE 3 4 - - - - - - - 25.4 1015.1 -
04/01:00am SSE 3 5 - - - - - - - 25.5 1015.1 -
04/12:30am WSW 1 3 - - - - - - - 25.6 1015.2 -
04/12:00am WSW 2 5 - - - - - - - 25.8 1015.3 -
 
Date/Time
CST
Wind Sea
Height
m
Swell Vis
km
Cloud Weather Temp
°C
Press
hPa
Rain since
9am
mm
Dir  Spd
kts
Gust
kts
Height
m
Period
s
Dir
03/11:30pm WSW 2 6 - - - - - - - 26.1 1015.0 -
03/11:00pm S 2 5 - - - - - - - 26.2 1015.0 -

Other formats

Comma delimited format used in spreadsheet applications
http://www.bom.gov.au/fwo/IDD60701/IDD60701.95122.axf

JavaScript Object Notation format (JSON) in row-major order
http://www.bom.gov.au/fwo/IDD60701/IDD60701.95122.json

Data quality

Most of these data are generated automatically and are frequently updated. Quality checks on data are not normally performed. It is possible for incorrect values to appear. Refer to information at About Latest Weather Observations and please check the disclaimer before using these data.